Time;durP1;ratioP1;P1;durP2;ratioP2;P2;SDS_P1;SDS_P2;PMS_P1;PMS_P2;Temp;Humidity;BMP_temperature;BMP_pressure;BME280_temperature;BME280_humidity;BME280_pressure;Samples;Min_cycle;Max_cycle;Signal;HPM_P1;HPM_P2
2022/05/09 00:01:39;;;;;;;;;;;;;;;15.59;95.05;100731.00;5052318;28;20463;-66
2022/05/09 00:04:04;;;;;;;;;;;;;;;15.57;94.71;100737.34;5052236;28;19912;-66
2022/05/09 00:06:29;;;;;;;;;;;;;;;15.61;94.72;100734.50;5051535;28;19921;-66
2022/05/09 00:08:55;;;;;;;;;;;;;;;15.60;95.87;100730.06;5051896;28;19970;-66
2022/05/09 00:11:20;;;;;;;;;;;;;;;15.63;95.35;100737.13;5052891;28;20003;-66
2022/05/09 00:13:45;;;;;;;;;;;;;;;15.61;95.51;100737.19;5053450;28;19913;-66
2022/05/09 00:16:11;;;;;;;;;;;;;;;15.57;95.54;100729.31;5053370;28;20284;-66
2022/05/09 00:18:36;;;;;;;;;;;;;;;15.56;96.32;100731.13;5053357;28;19967;-66
2022/05/09 00:21:02;;;;;;;;;;;;;;;15.58;95.81;100745.31;5052594;28;19916;-66
2022/05/09 00:23:27;;;;;;;;;;;;;;;15.56;95.61;100741.88;5053177;28;19967;-66
2022/05/09 00:25:53;;;;;;;;;;;;;;;15.49;95.53;100745.72;5052138;28;19923;-66
2022/05/09 00:28:18;;;;;;;;;;;;;;;15.45;96.78;100748.59;5053292;28;19949;-66
2022/05/09 00:30:44;;;;;;;;;;;;;;;15.38;96.47;100747.94;5051430;28;20232;-66
2022/05/09 00:33:09;;;;;;;;;;;;;;;15.31;97.07;100741.06;5052422;28;19956;-66
2022/05/09 00:35:36;;;;;;;;;;;;;;;15.29;97.24;100742.94;5052155;28;20429;-66
2022/05/09 00:38:01;;;;;;;;;;;;;;;15.21;97.18;100739.69;5052949;28;20308;-66
2022/05/09 00:40:27;;;;;;;;;;;;;;;15.18;97.39;100734.47;5052697;28;20022;-66
2022/05/09 00:42:53;;;;;;;;;;;;;;;15.14;98.54;100738.19;5052712;28;20371;-66
2022/05/09 00:45:21;;;;;;;;;;;;;;;15.10;98.18;100738.38;5052313;28;19924;-66
2022/05/09 00:47:47;;;;;;;;;;;;;;;15.04;98.75;100742.16;5052468;28;19921;-66
2022/05/09 00:50:14;;;;;;;;;;;;;;;15.02;99.20;100744.03;5052291;28;19920;-66
2022/05/09 00:52:43;;;;;;;;;;;;;;;14.98;99.15;100746.88;5032277;28;19913;-66
2022/05/09 00:55:11;;;;;;;;;;;;;;;14.90;100.00;100744.50;5032739;28;19932;-66
2022/05/09 00:57:53;;;;;;;;;;;;;;;14.91;100.00;100746.25;5032468;28;19917;-66
2022/05/09 01:00:19;;;;;;;;;;;;;;;14.92;99.97;100744.44;5032802;28;19939;-66
2022/05/09 01:02:49;;;;;;;;;;;;;;;14.94;100.00;100751.47;5035854;28;19964;-66
2022/05/09 01:05:15;;;;;;;;;;;;;;;14.97;100.00;100746.03;5032387;28;19940;-66
2022/05/09 01:07:41;;;;;;;;;;;;;;;14.96;100.00;100746.09;5032358;28;20007;-66
2022/05/09 01:10:11;;;;;;;;;;;;;;;14.91;100.00;100746.25;5032519;28;19979;-66
2022/05/09 01:12:37;;;;;;;;;;;;;;;14.89;100.00;100741.91;5032177;28;19924;-66
2022/05/09 01:15:05;;;;;;;;;;;;;;;14.84;100.00;100742.09;5032208;28;20296;-66
2022/05/09 01:17:31;;;;;;;;;;;;;;;14.85;100.00;100741.13;5046864;28;19916;-66
2022/05/09 01:19:59;;;;;;;;;;;;;;;14.82;100.00;100738.59;5051506;28;19917;-66
2022/05/09 01:22:26;;;;;;;;;;;;;;;15.00;100.00;100748.59;5051159;28;19927;-66
2022/05/09 01:24:53;;;;;;;;;;;;;;;14.99;100.00;100744.13;5050657;28;19920;-66
2022/05/09 01:27:19;;;;;;;;;;;;;;;15.05;100.00;100749.28;5050948;28;20295;-66
2022/05/09 01:30:04;;;;;;;;;;;;;;;15.00;99.83;100751.25;5051861;28;20001;-66
2022/05/09 01:32:34;;;;;;;;;;;;;;;14.98;100.00;100747.75;5050436;28;20355;-66
2022/05/09 01:35:04;;;;;;;;;;;;;;;14.95;100.00;100747.88;5051825;28;19916;-66
2022/05/09 01:37:30;;;;;;;;;;;;;;;14.82;100.00;100740.38;5051661;28;19975;-66
2022/05/09 01:39:56;;;;;;;;;;;;;;;14.64;100.00;100747.31;5051887;28;20263;-66
2022/05/09 01:42:21;;;;;;;;;;;;;;;14.71;100.00;100735.41;5050958;28;19917;-66
2022/05/09 01:44:46;;;;;;;;;;;;;;;14.55;100.00;100744.97;5051420;28;20315;-66
2022/05/09 01:49:55;;;;;;;;;;;;;;;14.61;100.00;100746.56;5051407;28;20387;-66
2022/05/09 01:52:21;;;;;;;;;;;;;;;14.69;100.00;100748.03;5051290;28;19920;-66
2022/05/09 01:54:47;;;;;;;;;;;;;;;14.74;100.00;100743.38;5051540;28;19912;-66
2022/05/09 01:57:12;;;;;;;;;;;;;;;14.65;100.00;100753.53;5051344;28;20334;-66
2022/05/09 01:59:38;;;;;;;;;;;;;;;14.59;100.00;100751.09;5051446;28;19935;-66
2022/05/09 02:02:08;;;;;;;;;;;;;;;14.57;100.00;100755.63;5051213;28;19917;-66
2022/05/09 02:04:40;;;;;;;;;;;;;;;14.59;100.00;100749.28;5051593;28;20334;-66
2022/05/09 02:07:09;;;;;;;;;;;;;;;14.61;100.00;100752.78;5051099;28;19920;-66
2022/05/09 02:09:34;;;;;;;;;;;;;;;14.59;100.00;100754.66;5051238;28;19913;-66
2022/05/09 02:12:00;;;;;;;;;;;;;;;14.58;100.00;100752.88;5050529;28;19917;-66
2022/05/09 02:14:25;;;;;;;;;;;;;;;14.58;100.00;100758.22;5050905;28;19924;-66
2022/05/09 02:16:50;;;;;;;;;;;;;;;14.55;100.00;100752.16;5056950;28;20005;-66
2022/05/09 02:19:15;;;;;;;;;;;;;;;14.54;100.00;100761.97;5070143;28;19917;-66
2022/05/09 02:21:41;;;;;;;;;;;;;;;14.47;100.00;100749.72;5050947;28;19968;-66
2022/05/09 02:24:06;;;;;;;;;;;;;;;14.44;100.00;100752.53;5051137;28;19917;-66
2022/05/09 02:26:32;;;;;;;;;;;;;;;14.41;100.00;100750.81;5050733;28;19932;-66
2022/05/09 02:28:57;;;;;;;;;;;;;;;14.43;100.00;100754.31;5050433;28;19913;-66
2022/05/09 02:31:23;;;;;;;;;;;;;;;14.42;100.00;100749.91;5050846;28;19921;-66
2022/05/09 02:33:49;;;;;;;;;;;;;;;14.40;100.00;100756.22;5050746;28;19921;-66
2022/05/09 02:36:14;;;;;;;;;;;;;;;14.35;100.00;100760.88;5051202;28;19916;-66
2022/05/09 02:38:39;;;;;;;;;;;;;;;14.40;100.00;100751.75;5050158;28;20303;-66
2022/05/09 02:41:05;;;;;;;;;;;;;;;14.40;100.00;100758.91;5050406;28;20297;-66
2022/05/09 02:43:31;;;;;;;;;;;;;;;14.39;100.00;100751.81;5050939;28;19916;-66
2022/05/09 02:46:03;;;;;;;;;;;;;;;14.37;100.00;100756.34;5050785;28;19955;-67
2022/05/09 02:48:29;;;;;;;;;;;;;;;14.34;100.00;100743.09;5050674;28;19952;-67
2022/05/09 02:50:54;;;;;;;;;;;;;;;14.33;100.00;100752.91;5050732;28;19967;-67
2022/05/09 02:53:19;;;;;;;;;;;;;;;14.30;100.00;100752.13;5050981;28;20058;-67
2022/05/09 02:55:45;;;;;;;;;;;;;;;14.28;100.00;100759.38;5053226;28;20399;-67
2022/05/09 02:58:12;;;;;;;;;;;;;;;14.28;100.00;100754.03;5054612;28;19962;-67
2022/05/09 03:00:37;;;;;;;;;;;;;;;14.22;100.00;100756.84;5053868;28;19920;-67
2022/05/09 03:05:47;;;;;;;;;;;;;;;14.14;100.00;100750.91;5053103;28;19969;-67
2022/05/09 03:08:13;;;;;;;;;;;;;;;14.14;100.00;100750.91;5052488;28;20350;-67
2022/05/09 03:10:39;;;;;;;;;;;;;;;14.08;100.00;100749.34;5053049;28;19919;-66
2022/05/09 03:13:05;;;;;;;;;;;;;;;14.03;100.00;100747.75;5052796;28;19916;-66
2022/05/09 03:15:33;;;;;;;;;;;;;;;14.01;100.00;100754.94;5054393;28;19917;-66
2022/05/09 03:17:58;;;;;;;;;;;;;;;14.08;100.00;100743.13;5069354;28;19919;-66
2022/05/09 03:20:24;;;;;;;;;;;;;;;14.10;100.00;100746.63;5064128;28;19916;-66
2022/05/09 03:22:49;;;;;;;;;;;;;;;14.13;100.00;100749.19;5054489;28;19916;-66
2022/05/09 03:25:15;;;;;;;;;;;;;;;14.14;100.00;100750.91;5054321;28;19917;-66
2022/05/09 03:27:40;;;;;;;;;;;;;;;14.14;100.00;100748.22;5054049;28;20000;-66
2022/05/09 03:30:07;;;;;;;;;;;;;;;14.12;100.00;100742.94;5054064;28;19970;-66
2022/05/09 03:32:34;;;;;;;;;;;;;;;14.11;100.00;100746.56;5053862;28;20295;-65
2022/05/09 03:34:59;;;;;;;;;;;;;;;14.13;100.00;100743.81;5054147;28;19945;-65
2022/05/09 03:37:24;;;;;;;;;;;;;;;14.10;100.00;100738.59;5053690;28;19948;-65
2022/05/09 03:39:50;;;;;;;;;;;;;;;14.15;100.00;100750.00;5054046;28;19978;-66
2022/05/09 03:42:18;;;;;;;;;;;;;;;14.16;100.00;100743.72;5054136;28;19916;-66
2022/05/09 03:44:43;;;;;;;;;;;;;;;14.16;100.00;100741.03;5053942;28;19959;-66
2022/05/09 03:47:09;;;;;;;;;;;;;;;14.16;100.00;100744.59;5053732;28;19924;-66
2022/05/09 03:49:34;;;;;;;;;;;;;;;14.13;100.00;100743.81;5053653;28;19919;-66
2022/05/09 03:51:59;;;;;;;;;;;;;;;14.13;100.00;100743.81;5053511;28;19917;-65
2022/05/09 03:54:25;;;;;;;;;;;;;;;14.17;100.00;100742.78;5053631;28;20026;-65
2022/05/09 03:56:50;;;;;;;;;;;;;;;14.15;100.00;100747.31;5053656;28;19923;-66
2022/05/09 03:59:15;;;;;;;;;;;;;;;14.00;100.00;100755.88;5053553;28;20387;-66
2022/05/09 04:01:41;;;;;;;;;;;;;;;13.99;100.00;100751.44;5053580;28;19981;-66
2022/05/09 04:04:06;;;;;;;;;;;;;;;14.11;100.00;100754.59;5053377;28;19916;-66
2022/05/09 04:06:32;;;;;;;;;;;;;;;14.15;100.00;100753.53;5052703;28;19994;-66
2022/05/09 04:08:57;;;;;;;;;;;;;;;14.16;100.00;100759.75;5053022;28;19938;-66
2022/05/09 04:11:22;;;;;;;;;;;;;;;14.17;100.00;100758.81;5052904;28;19924;-66
2022/05/09 04:13:47;;;;;;;;;;;;;;;14.18;100.00;100760.59;5053257;28;19983;-66
2022/05/09 04:18:59;;;;;;;;;;;;;;;14.21;100.00;100764.03;5073111;28;19935;-66
2022/05/09 04:21:25;;;;;;;;;;;;;;;14.23;100.00;100767.50;5063420;28;20400;-66
2022/05/09 04:23:53;;;;;;;;;;;;;;;14.27;100.00;100768.31;5052947;28;20000;-66
2022/05/09 04:26:18;;;;;;;;;;;;;;;14.28;100.00;100764.72;5053103;28;19975;-66
2022/05/09 04:28:44;;;;;;;;;;;;;;;14.30;100.00;100763.72;5052558;28;20009;-66
2022/05/09 04:31:09;;;;;;;;;;;;;;;14.32;100.00;100774.38;5052734;28;19924;-66
2022/05/09 04:33:34;;;;;;;;;;;;;;;14.23;100.00;100772.00;5052654;28;19913;-66
2022/05/09 04:36:00;;;;;;;;;;;;;;;14.19;100.00;100781.06;5051710;28;19984;-66
2022/05/09 04:38:26;;;;;;;;;;;;;;;14.20;100.00;100764.09;5053041;28;19935;-66
2022/05/09 04:40:52;;;;;;;;;;;;;;;14.22;100.00;100771.13;5052272;28;20071;-66
2022/05/09 04:43:23;;;;;;;;;;;;;;;14.24;100.00;100771.06;5052725;28;19916;-66
2022/05/09 04:45:51;;;;;;;;;;;;;;;14.28;100.00;100778.09;5052308;28;20012;-66
2022/05/09 04:48:17;;;;;;;;;;;;;;;14.34;100.00;100772.53;5052518;28;19927;-66
2022/05/09 04:50:43;;;;;;;;;;;;;;;14.39;100.00;100770.56;5052130;28;19921;-67
2022/05/09 04:53:08;;;;;;;;;;;;;;;14.47;100.00;100776.50;5052518;28;19913;-66
2022/05/09 04:55:33;;;;;;;;;;;;;;;14.51;100.00;100779.00;5052258;28;19912;-66
2022/05/09 04:58:03;;;;;;;;;;;;;;;14.53;100.00;100776.28;5052553;28;19913;-66
2022/05/09 05:00:28;;;;;;;;;;;;;;;14.60;100.00;100779.59;5052447;28;20272;-66
2022/05/09 05:02:54;;;;;;;;;;;;;;;14.68;100.00;100775.72;5051048;28;19983;-66
2022/05/09 05:05:20;;;;;;;;;;;;;;;14.76;100.00;100776.28;5051260;28;19912;-66
2022/05/09 05:07:45;;;;;;;;;;;;;;;14.82;100.00;100783.22;5051913;28;19921;-66
2022/05/09 05:10:11;;;;;;;;;;;;;;;14.93;100.00;100778.34;5051154;28;19917;-66
2022/05/09 05:12:37;;;;;;;;;;;;;;;15.04;100.00;100774.31;5052191;28;19966;-66
2022/05/09 05:15:03;;;;;;;;;;;;;;;15.19;100.00;100789.78;5052125;28;20307;-66
2022/05/09 05:17:28;;;;;;;;;;;;;;;15.30;100.00;100790.28;5061973;28;19917;-66
2022/05/09 05:19:54;;;;;;;;;;;;;;;15.39;100.00;100786.34;5072070;28;19997;-66
2022/05/09 05:22:19;;;;;;;;;;;;;;;15.47;100.00;100794.97;5064376;28;19917;-66
2022/05/09 05:24:46;;;;;;;;;;;;;;;15.55;100.00;100788.38;5051982;28;19924;-66
2022/05/09 05:27:12;;;;;;;;;;;;;;;15.63;100.00;100793.44;5051852;28;19916;-66
2022/05/09 05:29:38;;;;;;;;;;;;;;;15.87;100.00;100796.91;5051968;28;19923;-66
2022/05/09 05:32:26;;;;;;;;;;;;;;;16.21;98.25;100795.41;5051530;28;19928;-66
2022/05/09 05:34:51;;;;;;;;;;;;;;;16.54;94.90;100793.09;5051899;28;20391;-66
2022/05/09 05:37:17;;;;;;;;;;;;;;;16.57;93.72;100795.66;5051686;28;19916;-66
2022/05/09 05:39:43;;;;;;;;;;;;;;;16.57;92.16;100798.34;5051699;28;19921;-66
2022/05/09 05:42:09;;;;;;;;;;;;;;;16.52;93.03;100800.34;5051681;28;20370;-66
2022/05/09 05:44:35;;;;;;;;;;;;;;;16.64;92.71;100802.47;5051602;28;19913;-66
2022/05/09 05:47:06;;;;;;;;;;;;;;;16.75;93.45;100803.72;5051754;28;20016;-66
2022/05/09 05:49:32;;;;;;;;;;;;;;;17.17;92.66;100797.31;5051722;28;19939;-66
2022/05/09 05:52:02;;;;;;;;;;;;;;;17.36;90.36;100812.53;5051700;28;19913;-66
2022/05/09 05:54:28;;;;;;;;;;;;;;;17.39;89.50;100811.50;5051781;28;19923;-66
2022/05/09 05:56:53;;;;;;;;;;;;;;;17.40;88.94;100816.81;5051255;28;20079;-66
2022/05/09 05:59:18;;;;;;;;;;;;;;;17.33;87.35;100820.72;5051266;28;19924;-66
2022/05/09 06:01:43;;;;;;;;;;;;;;;17.33;87.55;100823.41;5051418;28;19917;-66
2022/05/09 06:04:09;;;;;;;;;;;;;;;17.32;87.99;100812.72;5051364;28;20338;-66
2022/05/09 06:06:34;;;;;;;;;;;;;;;17.31;86.83;100819.94;5051253;28;19924;-66
2022/05/09 06:08:59;;;;;;;;;;;;;;;17.50;87.09;100820.84;5050111;28;19916;-66
2022/05/09 06:11:24;;;;;;;;;;;;;;;17.71;87.47;100827.88;5051040;28;20037;-66
2022/05/09 06:13:50;;;;;;;;;;;;;;;18.01;86.47;100823.66;5050902;28;19929;-66
2022/05/09 06:16:15;;;;;;;;;;;;;;;17.98;83.90;100829.22;5052003;28;19924;-66
2022/05/09 06:18:41;;;;;;;;;;;;;;;18.02;82.88;100830.78;5071239;28;20202;-66
2022/05/09 06:21:06;;;;;;;;;;;;;;;18.29;84.70;100832.09;5071111;28;19923;-66
2022/05/09 06:23:32;;;;;;;;;;;;;;;18.37;81.13;100832.56;5058981;28;20384;-66
2022/05/09 06:25:57;;;;;;;;;;;;;;;18.42;81.60;100835.06;5050890;28;19920;-66
2022/05/09 06:28:23;;;;;;;;;;;;;;;18.41;81.56;100837.81;5052575;28;19917;-66
2022/05/09 06:30:48;;;;;;;;;;;;;;;18.54;80.89;100845.19;5057417;28;19916;-66
2022/05/09 06:33:19;;;;;;;;;;;;;;;18.62;79.09;100836.72;5057377;28;20015;-66
2022/05/09 06:35:44;;;;;;;;;;;;;;;18.73;79.66;100831.66;5057671;28;19951;-66
2022/05/09 06:38:14;;;;;;;;;;;;;;;18.77;78.79;100844.88;5057634;28;19948;-66
2022/05/09 06:40:40;;;;;;;;;;;;;;;18.96;78.85;100847.47;5055872;28;19916;-66
2022/05/09 06:43:06;;;;;;;;;;;;;;;19.17;77.80;100846.31;5057779;28;19931;-66
2022/05/09 06:45:32;;;;;;;;;;;;;;;19.40;76.10;100843.25;5057206;28;19986;-66
2022/05/09 06:47:57;;;;;;;;;;;;;;;19.56;76.30;100847.69;5057188;28;20224;-66
2022/05/09 06:50:24;;;;;;;;;;;;;;;19.79;76.16;100848.19;5055950;28;20438;-66
2022/05/09 06:52:49;;;;;;;;;;;;;;;20.09;75.04;100851.84;5056594;28;20336;-66
2022/05/09 06:55:15;;;;;;;;;;;;;;;20.21;72.84;100846.66;5056483;28;19967;-66
2022/05/09 06:57:42;;;;;;;;;;;;;;;20.41;73.44;100853.56;5056185;28;20338;-66
2022/05/09 07:00:09;;;;;;;;;;;;;;;20.65;72.25;100855.66;5057205;28;19942;-66
2022/05/09 07:02:34;;;;;;;;;;;;;;;20.85;71.22;100841.81;5057268;28;19962;-66
2022/05/09 07:05:02;;;;;;;;;;;;;;;21.11;70.25;100848.31;5057332;28;19917;-66
2022/05/09 07:07:27;;;;;;;;;;;;;;;21.17;69.14;100847.09;5057421;28;19975;-66
2022/05/09 07:09:53;;;;;;;;;;;;;;;21.15;69.75;100847.19;5057035;28;19971;-66
2022/05/09 07:12:18;;;;;;;;;;;;;;;21.51;67.10;100842.13;5057097;28;19994;-66
2022/05/09 07:14:43;;;;;;;;;;;;;;;21.66;66.45;100843.81;5056429;28;19913;-66
2022/05/09 07:17:08;;;;;;;;;;;;;;;21.61;64.60;100842.41;5065147;28;19917;-66
2022/05/09 07:19:35;;;;;;;;;;;;;;;;;;5077348;28;19920;-66
2022/05/09 07:22:00;;;;;;;;;;;;;;;22.07;64.39;100846.56;5077351;28;20288;-66
2022/05/09 07:24:25;;;;;;;;;;;;;;;22.35;62.87;100843.75;5077270;28;19916;-66
2022/05/09 07:26:53;;;;;;;;;;;;;;;22.82;63.01;100840.47;5077088;28;20426;-66
2022/05/09 07:29:19;;;;;;;;;;;;;;;23.12;59.83;100844.63;5077261;28;19981;-65
2022/05/09 07:31:44;;;;;;;;;;;;;;;23.20;58.51;100838.66;5072267;28;19929;-66
2022/05/09 07:34:09;;;;;;;;;;;;;;;23.36;58.12;100847.47;5065784;28;19920;-66
2022/05/09 07:36:35;;;;;;;;;;;;;;;23.34;56.04;100847.56;5056661;28;19928;-66
2022/05/09 07:39:00;;;;;;;;;;;;;;;23.74;56.66;100848.25;5054522;28;19913;-66
2022/05/09 07:41:27;;;;;;;;;;;;;;;23.96;54.29;100853.84;5051960;28;19924;-66
2022/05/09 07:43:52;;;;;;;;;;;;;;;24.11;55.60;100847.31;5052413;28;19966;-66
2022/05/09 07:46:18;;;;;;;;;;;;;;;24.36;55.28;100852.63;5066616;28;19924;-66
2022/05/09 07:48:43;;;;;;;;;;;;;;;24.28;53.33;100860.47;5063538;28;20455;-65
2022/05/09 07:51:08;;;;;;;;;;;;;;;24.41;53.68;100833.22;5052630;28;19936;-65
2022/05/09 07:53:34;;;;;;;;;;;;;;;24.82;53.21;100852.69;5052074;28;19920;-65
2022/05/09 07:56:04;;;;;;;;;;;;;;;24.87;51.38;100847.75;5053446;28;20362;-65
2022/05/09 07:58:30;;;;;;;;;;;;;;;24.93;53.84;100852.72;5052975;28;19969;-65
2022/05/09 08:00:58;;;;;;;;;;;;;;;25.05;51.98;100853.59;5049271;28;19916;-65
2022/05/09 08:03:24;;;;;;;;;;;;;;;25.25;52.42;100852.88;5049526;28;19916;-65
2022/05/09 08:05:50;;;;;;;;;;;;;;;25.67;50.42;100850.31;5050008;28;20398;-65
2022/05/09 08:08:16;;;;;;;;;;;;;;;25.69;50.89;100851.06;5056599;28;19932;-65
2022/05/09 08:10:42;;;;;;;;;;;;;;;25.96;49.43;100851.50;5064242;28;19925;-65
2022/05/09 08:13:08;;;;;;;;;;;;;;;25.88;49.63;100844.97;5053468;28;19920;-65
2022/05/09 08:15:34;;;;;;;;;;;;;;;26.29;49.26;100853.31;5057819;28;19920;-65
2022/05/09 08:18:01;;;;;;;;;;;;;;;26.47;48.61;100850.88;5068929;28;19913;-65
2022/05/09 08:20:26;;;;;;;;;;;;;;;26.50;48.58;100853.34;5073232;28;19920;-65
2022/05/09 08:22:59;;;;;;;;;;;;;;;26.76;48.29;100852.00;5073122;28;19921;-65
2022/05/09 08:25:24;;;;;;;;;;;;;;;27.23;46.43;100851.47;5042286;28;20380;-65
2022/05/09 08:27:49;;;;;;;;;;;;;;;27.60;46.04;100855.41;5057191;28;20012;-64
2022/05/09 08:30:15;;;;;;;;;;;;;;;27.63;45.89;100857.88;5070235;28;20007;-64
2022/05/09 08:32:41;;;;;;;;;;;;;;;28.01;45.20;100855.28;5066683;28;19966;-64
2022/05/09 08:35:08;;;;;;;;;;;;;;;27.65;45.28;100864.06;5068022;28;19947;-64
2022/05/09 08:37:33;;;;;;;;;;;;;;;27.62;46.09;100853.41;5066926;28;19925;-64
2022/05/09 08:39:58;;;;;;;;;;;;;;;28.07;46.08;100862.09;5051589;28;19920;-64
2022/05/09 08:42:44;;;;;;;;;;;;;;;27.95;44.65;100858.59;5051059;28;19917;-64
2022/05/09 08:45:19;;;;;;;;;;;;;;;28.10;44.41;100854.47;5052015;28;19917;-64
2022/05/09 08:48:03;;;;;;;;;;;;;;;28.23;46.05;100851.44;5052483;28;20392;-64
2022/05/09 08:50:34;;;;;;;;;;;;;;;28.54;45.14;100852.22;5051661;28;19955;-64
2022/05/09 08:53:05;;;;;;;;;;;;;;;28.72;44.60;100845.00;5049444;28;20102;-64
2022/05/09 08:55:38;;;;;;;;;;;;;;;28.61;45.09;100840.56;5052920;28;20380;-64
2022/05/09 08:58:03;;;;;;;;;;;;;;;28.61;42.93;100853.38;5052549;28;19942;-64
2022/05/09 09:00:31;;;;;;;;;;;;;;;28.41;43.46;100847.88;5051817;28;19918;-64
2022/05/09 09:03:01;;;;;;;;;;;;;;;28.47;45.66;100851.88;5050847;28;19912;-64
2022/05/09 09:05:28;;;;;;;;;;;;;;;28.76;44.38;100840.97;5051635;28;19913;-64
2022/05/09 09:08:09;;;;;;;;;;;;;;;28.57;45.39;100846.47;5050261;28;19924;-64
2022/05/09 09:10:43;;;;;;;;;;;;;;;29.24;43.29;100842.63;5050870;28;19924;-65
2022/05/09 09:13:29;;;;;;;;;;;;;;;29.32;41.76;100844.63;5049092;28;19924;-65
2022/05/09 09:16:12;;;;;;;;;;;;;;;29.32;42.13;100840.03;5052230;28;20402;-65
2022/05/09 09:18:56;;;;;;;;;;;;;;;29.20;41.21;100840.34;5033204;28;19920;-63
2022/05/09 09:21:27;;;;;;;;;;;;;;;29.23;41.03;100842.78;5032209;28;19913;-61
2022/05/09 09:23:56;;;;;;;;;;;;;;;28.98;43.11;100837.94;5036551;28;19971;-61
2022/05/09 09:26:30;;;;;;;;;;;;;;;28.81;42.75;100838.66;5051725;28;19928;-61
2022/05/09 09:28:55;;;;;;;;;;;;;;;28.75;43.45;100845.56;5050485;28;20376;-61
2022/05/09 09:31:28;;;;;;;;;;;;;;;29.17;43.39;100840.63;5051953;28;19982;-61
2022/05/09 09:34:14;;;;;;;;;;;;;;;29.32;43.86;100844.63;5052110;28;19923;-61
2022/05/09 09:36:43;;;;;;;;;;;;;;;29.66;42.84;100845.81;5040359;28;19923;-61
2022/05/09 09:39:15;;;;;;;;;;;;;;;29.84;42.30;100852.22;5052026;28;19979;-61
2022/05/09 09:41:40;;;;;;;;;;;;;;;29.80;40.58;100845.34;5051773;28;20313;-61
2022/05/09 09:44:08;;;;;;;;;;;;;;;29.79;40.24;100843.59;5051979;28;19924;-61
2022/05/09 09:46:34;;;;;;;;;;;;;;;29.48;42.50;100834.75;5050128;28;19970;-61
2022/05/09 09:49:09;;;;;;;;;;;;;;;29.84;42.06;100833.03;5049882;28;19917;-61
2022/05/09 09:51:45;;;;;;;;;;;;;;;29.71;42.05;100835.25;5049529;28;19983;-61
2022/05/09 09:54:12;;;;;;;;;;;;;;;30.18;40.29;100834.09;5049477;28;19912;-61
2022/05/09 09:56:38;;;;;;;;;;;;;;;30.18;40.42;100834.09;5049312;28;20408;-62
2022/05/09 09:59:09;;;;;;;;;;;;;;;30.03;40.64;100830.19;5050131;28;19932;-62
2022/05/09 10:01:35;;;;;;;;;;;;;;;30.11;40.71;100838.50;5050546;28;20269;-62
2022/05/09 10:04:10;;;;;;;;;;;;;;;30.18;39.79;100827.75;5050316;28;19928;-62
2022/05/09 10:06:54;;;;;;;;;;;;;;;30.61;41.29;100831.47;5049707;28;20457;-62
2022/05/09 10:09:21;;;;;;;;;;;;;;;30.34;40.17;100831.56;5051897;28;19935;-62
2022/05/09 10:11:46;;;;;;;;;;;;;;;30.38;42.33;100827.47;5051496;28;19913;-62
2022/05/09 10:14:29;;;;;;;;;;;;;;;30.29;41.96;100819.31;5051460;28;19938;-62
2022/05/09 10:17:11;;;;;;;;;;;;;;;30.34;41.01;100817.84;5056742;28;20295;-62
2022/05/09 10:19:37;;;;;;;;;;;;;;;30.38;41.84;100811.00;5071428;28;19942;-62
2022/05/09 10:25:17;;;;;;;;;;;;;;;30.88;39.41;100800.31;5071261;28;20708;-61
2022/05/09 10:27:44;;;;;;;;;;;;;;;31.13;40.01;100795.84;5071240;28;20430;-61
2022/05/09 10:30:09;;;;;;;;;;;;;;;31.09;39.66;100806.28;5071233;28;19982;-61
2022/05/09 10:32:53;;;;;;;;;;;;;;;30.78;39.24;100800.41;5058450;28;20356;-62
2022/05/09 10:35:21;;;;;;;;;;;;;;;30.77;40.60;100797.78;5049561;28;19916;-62
2022/05/09 10:37:49;;;;;;;;;;;;;;;30.55;40.23;100793.66;5049065;28;19952;-62
2022/05/09 10:40:26;;;;;;;;;;;;;;;30.29;39.87;100798.25;5049311;28;19916;-62
2022/05/09 10:42:59;;;;;;;;;;;;;;;30.45;39.37;100792.00;5048931;28;19999;-62
2022/05/09 10:45:27;;;;;;;;;;;;;;;30.53;38.71;100792.09;5048940;28;19917;-62
2022/05/09 10:47:55;;;;;;;;;;;;;;;31.05;38.55;100795.78;5043374;28;20427;-62
2022/05/09 10:50:35;;;;;;;;;;;;;;;30.81;39.02;100782.72;5031028;28;19917;-62
2022/05/09 10:53:10;;;;;;;;;;;;;;;31.48;39.55;100782.84;5030858;28;19917;-62
2022/05/09 10:55:35;;;;;;;;;;;;;;;31.27;39.05;100779.59;5030878;28;19983;-62
2022/05/09 10:58:16;;;;;;;;;;;;;;;31.64;37.99;100779.28;5050203;28;19947;-62
2022/05/09 11:00:46;;;;;;;;;;;;;;;32.22;38.88;100776.56;5050329;28;19923;-62
2022/05/09 11:03:14;;;;;;;;;;;;;;;32.22;36.49;100771.03;5050747;28;20359;-62
2022/05/09 11:06:00;;;;;;;;;;;;;;;32.18;37.40;100767.75;5050674;28;19980;-62
2022/05/09 11:08:43;;;;;;;;;;;;;;;32.16;36.76;100766.22;5039672;28;20009;-62
2022/05/09 11:11:14;;;;;;;;;;;;;;;32.63;36.46;100759.91;5050811;28;19916;-62
2022/05/09 11:13:42;;;;;;;;;;;;;;;32.70;38.59;100751.81;5050489;28;19912;-62
2022/05/09 11:16:23;;;;;;;;;;;;;;;32.58;36.06;100751.31;5052504;28;19963;-62
2022/05/09 11:18:51;;;;;;;;;;;;;;;32.36;36.63;100746.44;5034590;28;19962;-62
2022/05/09 11:21:19;;;;;;;;;;;;;;;32.60;36.85;100749.25;5052567;28;19966;-62
2022/05/09 11:23:56;;;;;;;;;;;;;;;32.53;35.67;100737.19;5054462;28;20391;-62
2022/05/09 11:26:40;;;;;;;;;;;;;;;32.62;35.34;100744.41;5054412;28;19917;-62
2022/05/09 11:29:09;;;;;;;;;;;;;;;32.09;35.79;100722.00;5054280;28;19916;-62
2022/05/09 11:31:58;;;;;;;;;;;;;;;32.64;36.15;100738.72;5053802;28;19920;-62
2022/05/09 11:34:32;;;;;;;;;;;;;;;33.19;35.02;100731.41;5054230;28;19955;-62
2022/05/09 11:37:15;;;;;;;;;;;;;;;33.21;34.56;100726.56;5054181;28;19916;-63
2022/05/09 11:39:58;;;;;;;;;;;;;;;33.34;35.41;100727.69;5054417;28;19924;-63
2022/05/09 11:45:31;;;;;;;;;;;;;;;33.14;34.83;100715.38;5039135;28;19990;-63
2022/05/09 11:48:15;;;;;;;;;;;;;;;32.95;34.18;100712.19;5053759;28;19917;-63
2022/05/09 11:51:01;;;;;;;;;;;;;;;32.99;34.45;100708.88;5053980;28;19913;-63
2022/05/09 11:53:28;;;;;;;;;;;;;;;33.58;36.17;100706.59;5053934;28;19913;-63
2022/05/09 11:55:53;;;;;;;;;;;;;;;33.67;34.33;100714.66;5053803;28;19952;-63
2022/05/09 11:58:19;;;;;;;;;;;;;;;33.30;34.05;100703.41;5053915;28;19959;-63
2022/05/09 12:00:47;;;;;;;;;;;;;;;32.88;33.92;100698.19;5053408;28;19917;-63
2022/05/09 12:03:16;;;;;;;;;;;;;;;33.07;34.30;100708.84;5053591;28;19921;-63
2022/05/09 12:06:01;;;;;;;;;;;;;;;33.25;33.09;100706.72;5053858;28;19913;-63
2022/05/09 12:08:38;;;;;;;;;;;;;;;33.44;34.54;100693.56;5053814;28;19939;-63
2022/05/09 12:11:19;;;;;;;;;;;;;;;33.72;33.39;100692.03;5052680;28;19970;-63
2022/05/09 12:13:48;;;;;;;;;;;;;;;33.93;32.16;100684.84;5053635;28;20015;-63
2022/05/09 12:16:36;;;;;;;;;;;;;;;33.89;32.71;100683.44;5054155;28;19916;-63
2022/05/09 12:19:03;;;;;;;;;;;;;;;33.45;31.90;100692.50;5073234;28;20250;-63
2022/05/09 12:21:32;;;;;;;;;;;;;;;33.52;32.19;100682.50;5073379;28;19912;-63
2022/05/09 12:24:18;;;;;;;;;;;;;;;34.05;32.36;100693.56;5073503;28;20384;-63
2022/05/09 12:26:45;;;;;;;;;;;;;;;34.24;31.55;100688.41;5072881;28;19971;-63
2022/05/09 12:29:17;;;;;;;;;;;;;;;34.03;30.45;100679.94;5071247;28;19912;-63
2022/05/09 12:31:44;;;;;;;;;;;;;;;34.11;32.79;100681.78;5051305;28;20443;-63
2022/05/09 12:34:17;;;;;;;;;;;;;;;34.00;31.12;100671.16;5052885;28;19923;-63
2022/05/09 12:36:46;;;;;;;;;;;;;;;34.16;32.36;100674.66;5053066;28;19920;-63
2022/05/09 12:39:16;;;;;;;;;;;;;;;34.20;31.04;100681.50;5052471;28;19967;-63
2022/05/09 12:41:45;;;;;;;;;;;;;;;33.93;31.30;100667.41;5052834;28;19923;-63
2022/05/09 12:44:14;;;;;;;;;;;;;;;33.74;32.87;100665.13;5052815;28;19920;-63
2022/05/09 12:46:50;;;;;;;;;;;;;;;33.66;31.96;100662.41;5052727;28;20043;-63
2022/05/09 12:49:16;;;;;;;;;;;;;;;34.24;31.01;100654.38;5052763;28;19917;-63
2022/05/09 12:51:43;;;;;;;;;;;;;;;34.27;30.25;100654.88;5052842;28;19983;-63
2022/05/09 12:54:10;;;;;;;;;;;;;;;34.07;31.25;100658.34;5052772;28;19916;-63